Boryslav — ENLB — position and weather

sailwx.info

Track history (hours):
 
Tides and Currents Weather Stations Pressure Air Temp Water Temp Dewpoint Dewpoint Depression Visibility Wind Speed Wind Dir Waves Ship Positions

Boryslav

Last reported at 2017-Aug-21 00:31 UTC. Time now 2017-Aug-21 00:57 UTC.
Position N 43°51' E 023°16'.

Length 86 m; draft 2 m.

Type: Cargo ship. MMSI: 272088700.

Date/timePositionNaut miles runAvg speedWind from/ knotsBaromVisibWave heightAir tempDewpointWater temp
2017-Aug-21 00:31N 43°51' E 023°16'0 0.0
2017-Aug-21 00:00N 43°51' E 023°16'0 0.0
2017-Aug-20 23:30N 43°51' E 023°16'0 0.0
2017-Aug-20 22:58N 43°51' E 023°16'0 0.0
2017-Aug-20 22:28N 43°51' E 023°16'0 0.0
2017-Aug-20 22:00N 43°51' E 023°16'0 0.0
2017-Aug-20 21:30N 43°51' E 023°16'0 0.0
2017-Aug-20 21:00N 43°51' E 023°16'0 0.0
2017-Aug-20 20:30N 43°51' E 023°16'0 0.0
2017-Aug-20 20:00N 43°51' E 023°16'0 0.0
2017-Aug-20 19:30N 43°51' E 023°16'0 0.0
2017-Aug-20 19:00N 43°51' E 023°16'0 0.0
2017-Aug-20 18:30N 43°51' E 023°16'0 0.0
2017-Aug-20 17:57N 43°51' E 023°16'0 0.8
2017-Aug-20 17:30N 43°51' E 023°16'2 3.7
2017-Aug-20 17:00N 43°50' E 023°14'0 0.0
2017-Aug-20 16:27N 43°50' E 023°14'0 0.0
2017-Aug-20 15:50N 43°50' E 023°14'0 0.0
2017-Aug-20 14:58N 43°50' E 023°14'0 0.0
2017-Aug-20 14:30N 43°50' E 023°14'0 0.0
2017-Aug-20 14:00N 43°50' E 023°14'0 0.0
2017-Aug-20 13:29N 43°50' E 023°14'0 0.0
2017-Aug-20 09:25N 43°50' E 023°14'0 0.0
2017-Aug-20 08:38N 43°50' E 023°14'0 0.0
2017-Aug-20 08:28N 43°50' E 023°14'0 0.0
2017-Aug-20 07:58N 43°50' E 023°14'0 0.0
2017-Aug-20 07:29N 43°50' E 023°14'0 0.0
2017-Aug-20 06:59N 43°50' E 023°14'0 0.0
2017-Aug-20 06:25N 43°50' E 023°14'0 0.0
2017-Aug-20 06:00N 43°50' E 023°14'0 0.0
2017-Aug-20 05:30N 43°50' E 023°14'0 0.0
2017-Aug-20 05:00N 43°50' E 023°14'0 0.0
2017-Aug-20 04:30N 43°50' E 023°14'0 0.0
2017-Aug-20 04:00N 43°50' E 023°14'0 0.0
2017-Aug-20 03:30N 43°50' E 023°14'0 0.0
2017-Aug-20 03:00N 43°50' E 023°14'0 0.0
2017-Aug-20 02:30N 43°50' E 023°14'0 0.0
2017-Aug-20 02:00N 43°50' E 023°14'0 0.0
2017-Aug-20 01:30N 43°50' E 023°14'0 0.0
2017-Aug-20 01:00N 43°50' E 023°14'0 0.0
2017-Aug-20 00:30N 43°50' E 023°14'0 0.0
2017-Aug-20 00:00N 43°50' E 023°14'0 0.0
2017-Aug-19 23:30N 43°50' E 023°14'0 0.0
2017-Aug-19 23:00N 43°50' E 023°14'0 0.0
2017-Aug-19 22:30N 43°50' E 023°14'0 0.0
2017-Aug-19 22:00N 43°50' E 023°14'0 0.0
2017-Aug-19 21:30N 43°50' E 023°14'0 0.0
2017-Aug-19 21:00N 43°50' E 023°14'0 0.0
2017-Aug-19 20:30N 43°50' E 023°14'0 0.0
2017-Aug-19 20:00N 43°50' E 023°14'0 0.0
2017-Aug-19 19:30N 43°50' E 023°14'0 0.0
2017-Aug-19 19:00N 43°50' E 023°14'0 0.0
2017-Aug-19 18:30N 43°50' E 023°14'0 0.0
2017-Aug-19 18:00N 43°50' E 023°14'0 0.0
2017-Aug-19 17:30N 43°50' E 023°14'0 0.0
2017-Aug-19 16:59N 43°50' E 023°14'0 0.0
2017-Aug-19 16:19N 43°50' E 023°14'0 0.0
2017-Aug-19 15:57N 43°50' E 023°14'0 0.0
2017-Aug-19 15:29N 43°50' E 023°14'0 0.0
2017-Aug-19 14:42N 43°50' E 023°14'0 0.0
2017-Aug-19 12:27N 43°50' E 023°14'0 0.0
2017-Aug-19 10:56N 43°50' E 023°14'0 0.0
2017-Aug-19 10:25N 43°50' E 023°14'1 0.3
2017-Aug-19 07:24N 43°50' E 023°15'0 1.0
2017-Aug-19 06:58N 43°50' E 023°14'0 0.0
2017-Aug-19 06:30N 43°50' E 023°14'0 0.0
2017-Aug-19 06:00N 43°50' E 023°14'0 0.0
2017-Aug-19 05:30N 43°50' E 023°14'0 0.0
2017-Aug-19 05:00N 43°50' E 023°14'1 1.9
2017-Aug-19 04:30N 43°51' E 023°15'0 0.4
2017-Aug-19 04:00N 43°50' E 023°15'0 0.0
2017-Aug-19 03:30N 43°50' E 023°15'0 0.0
2017-Aug-19 03:00N 43°50' E 023°15'0 0.0
2017-Aug-19 02:30N 43°50' E 023°15'0 0.0
2017-Aug-19 02:00N 43°50' E 023°15'0 0.1
2017-Aug-19 01:30N 43°51' E 023°15'1 2.2
2017-Aug-19 01:00N 43°51' E 023°17'2 3.3
2017-Aug-19 00:30N 43°51' E 023°19'2 3.5
2017-Aug-19 00:00N 43°51' E 023°22'2 3.6
2017-Aug-18 23:30N 43°51' E 023°24'2 3.6
2017-Aug-18 23:00N 43°51' E 023°27'2 3.1
2017-Aug-18 22:27N 43°50' E 023°29'1 2.9
2017-Aug-18 22:00N 43°50' E 023°30'2 3.5
2017-Aug-18 21:30N 43°49' E 023°32'2 3.2
2017-Aug-18 21:00N 43°48' E 023°34'2 3.5
2017-Aug-18 20:30N 43°48' E 023°37'  
2017-Aug-12 21:45N 44°14' E 027°35'4 2.0
2017-Aug-12 19:39N 44°16' E 027°39'0 0.0
2017-Aug-12 19:17N 44°16' E 027°39'0 0.0
2017-Aug-12 18:58N 44°16' E 027°39'0 0.2
2017-Aug-12 18:26N 44°16' E 027°39'1 1.6
2017-Aug-12 18:00N 44°17' E 027°40'2 3.2
2017-Aug-12 17:30N 44°18' E 027°41'2 3.4
2017-Aug-12 17:00N 44°19' E 027°43'  
Track history (hours):
 
Tides and Currents Weather Stations Pressure Air Temp Water Temp Dewpoint Dewpoint Depression Visibility Wind Speed Wind Dir Waves Ship Positions

Boryslav

Last reported at 2017-Aug-21 00:31 UTC. Time now 2017-Aug-21 00:57 UTC.
Position N 43°51' E 023°16'.

Length 86 m; draft 2 m.

Type: Cargo ship. MMSI: 272088700.

Date/timePositionNaut miles runAvg speedWind from/ knotsBaromVisibWave heightAir tempDewpointWater temp
2017-Aug-21 00:31N 43°51' E 023°16'0 0.0
2017-Aug-21 00:00N 43°51' E 023°16'0 0.0
2017-Aug-20 23:30N 43°51' E 023°16'0 0.0
2017-Aug-20 22:58N 43°51' E 023°16'0 0.0
2017-Aug-20 22:28N 43°51' E 023°16'0 0.0
2017-Aug-20 22:00N 43°51' E 023°16'0 0.0
2017-Aug-20 21:30N 43°51' E 023°16'0 0.0
2017-Aug-20 21:00N 43°51' E 023°16'0 0.0
2017-Aug-20 20:30N 43°51' E 023°16'0 0.0
2017-Aug-20 20:00N 43°51' E 023°16'0 0.0
2017-Aug-20 19:30N 43°51' E 023°16'0 0.0
2017-Aug-20 19:00N 43°51' E 023°16'0 0.0
2017-Aug-20 18:30N 43°51' E 023°16'0 0.0
2017-Aug-20 17:57N 43°51' E 023°16'0 0.8
2017-Aug-20 17:30N 43°51' E 023°16'2 3.7
2017-Aug-20 17:00N 43°50' E 023°14'0 0.0
2017-Aug-20 16:27N 43°50' E 023°14'0 0.0
2017-Aug-20 15:50N 43°50' E 023°14'0 0.0
2017-Aug-20 14:58N 43°50' E 023°14'0 0.0
2017-Aug-20 14:30N 43°50' E 023°14'0 0.0
2017-Aug-20 14:00N 43°50' E 023°14'0 0.0
2017-Aug-20 13:29N 43°50' E 023°14'0 0.0
2017-Aug-20 09:25N 43°50' E 023°14'0 0.0
2017-Aug-20 08:38N 43°50' E 023°14'0 0.0
2017-Aug-20 08:28N 43°50' E 023°14'0 0.0
2017-Aug-20 07:58N 43°50' E 023°14'0 0.0
2017-Aug-20 07:29N 43°50' E 023°14'0 0.0
2017-Aug-20 06:59N 43°50' E 023°14'0 0.0
2017-Aug-20 06:25N 43°50' E 023°14'0 0.0
2017-Aug-20 06:00N 43°50' E 023°14'0 0.0
2017-Aug-20 05:30N 43°50' E 023°14'0 0.0
2017-Aug-20 05:00N 43°50' E 023°14'0 0.0
2017-Aug-20 04:30N 43°50' E 023°14'0 0.0
2017-Aug-20 04:00N 43°50' E 023°14'0 0.0
2017-Aug-20 03:30N 43°50' E 023°14'0 0.0
2017-Aug-20 03:00N 43°50' E 023°14'0 0.0
2017-Aug-20 02:30N 43°50' E 023°14'0 0.0
2017-Aug-20 02:00N 43°50' E 023°14'0 0.0
2017-Aug-20 01:30N 43°50' E 023°14'0 0.0
2017-Aug-20 01:00N 43°50' E 023°14'0 0.0
2017-Aug-20 00:30N 43°50' E 023°14'0 0.0
2017-Aug-20 00:00N 43°50' E 023°14'0 0.0
2017-Aug-19 23:30N 43°50' E 023°14'0 0.0
2017-Aug-19 23:00N 43°50' E 023°14'0 0.0
2017-Aug-19 22:30N 43°50' E 023°14'0 0.0
2017-Aug-19 22:00N 43°50' E 023°14'0 0.0
2017-Aug-19 21:30N 43°50' E 023°14'0 0.0
2017-Aug-19 21:00N 43°50' E 023°14'0 0.0
2017-Aug-19 20:30N 43°50' E 023°14'0 0.0
2017-Aug-19 20:00N 43°50' E 023°14'0 0.0
2017-Aug-19 19:30N 43°50' E 023°14'0 0.0
2017-Aug-19 19:00N 43°50' E 023°14'0 0.0
2017-Aug-19 18:30N 43°50' E 023°14'0 0.0
2017-Aug-19 18:00N 43°50' E 023°14'0 0.0
2017-Aug-19 17:30N 43°50' E 023°14'0 0.0
2017-Aug-19 16:59N 43°50' E 023°14'0 0.0
2017-Aug-19 16:19N 43°50' E 023°14'0 0.0
2017-Aug-19 15:57N 43°50' E 023°14'0 0.0
2017-Aug-19 15:29N 43°50' E 023°14'0 0.0
2017-Aug-19 14:42N 43°50' E 023°14'0 0.0
2017-Aug-19 12:27N 43°50' E 023°14'0 0.0
2017-Aug-19 10:56N 43°50' E 023°14'0 0.0
2017-Aug-19 10:25N 43°50' E 023°14'1 0.3
2017-Aug-19 07:24N 43°50' E 023°15'0 1.0
2017-Aug-19 06:58N 43°50' E 023°14'0 0.0
2017-Aug-19 06:30N 43°50' E 023°14'0 0.0
2017-Aug-19 06:00N 43°50' E 023°14'0 0.0
2017-Aug-19 05:30N 43°50' E 023°14'0 0.0
2017-Aug-19 05:00N 43°50' E 023°14'1 1.9
2017-Aug-19 04:30N 43°51' E 023°15'0 0.4
2017-Aug-19 04:00N 43°50' E 023°15'0 0.0
2017-Aug-19 03:30N 43°50' E 023°15'0 0.0
2017-Aug-19 03:00N 43°50' E 023°15'0 0.0
2017-Aug-19 02:30N 43°50' E 023°15'0 0.0
2017-Aug-19 02:00N 43°50' E 023°15'0 0.1
2017-Aug-19 01:30N 43°51' E 023°15'1 2.2
2017-Aug-19 01:00N 43°51' E 023°17'2 3.3
2017-Aug-19 00:30N 43°51' E 023°19'2 3.5
2017-Aug-19 00:00N 43°51' E 023°22'2 3.6
2017-Aug-18 23:30N 43°51' E 023°24'2 3.6
2017-Aug-18 23:00N 43°51' E 023°27'2 3.1
2017-Aug-18 22:27N 43°50' E 023°29'1 2.9
2017-Aug-18 22:00N 43°50' E 023°30'2 3.5
2017-Aug-18 21:30N 43°49' E 023°32'2 3.2
2017-Aug-18 21:00N 43°48' E 023°34'2 3.5
2017-Aug-18 20:30N 43°48' E 023°37'  
2017-Aug-12 21:45N 44°14' E 027°35'4 2.0
2017-Aug-12 19:39N 44°16' E 027°39'0 0.0
2017-Aug-12 19:17N 44°16' E 027°39'0 0.0
2017-Aug-12 18:58N 44°16' E 027°39'0 0.2
2017-Aug-12 18:26N 44°16' E 027°39'1 1.6
2017-Aug-12 18:00N 44°17' E 027°40'2 3.2
2017-Aug-12 17:30N 44°18' E 027°41'2 3.4
2017-Aug-12 17:00N 44°19' E 027°43'  

Dump ship's entire track history